Time,TemperatureF,DewpointF,PressureIn,WindDirection,WindDirectionDegrees,WindSpeedMPH,WindSpeedGustMPH,Humidity,HourlyPrecipIn,Conditions,Clouds,dailyrainin,SoftwareType,DateUTC
2013-01-14 00:03:00,34.3,33.8,29.88,NW,315,0.0,-999.0,98,-99.99,,,0.00,Acu-Link.com,2013-01-14 05:03:00,
2013-01-14 00:18:00,34.3,33.8,29.87,WNW,292,0.0,-999.0,98,-99.99,,,0.00,Acu-Link.com,2013-01-14 05:18:00,
2013-01-14 00:34:00,34.2,33.7,29.87,NW,315,0.0,-999.0,98,-99.99,,,0.00,Acu-Link.com,2013-01-14 05:34:00,
2013-01-14 00:49:00,34.2,33.7,29.86,SSW,202,0.0,-999.0,98,-99.99,,,0.00,Acu-Link.com,2013-01-14 05:49:00,
2013-01-14 01:04:00,34.3,33.8,29.87,West,270,0.0,-999.0,98,-99.99,,,0.00,Acu-Link.com,2013-01-14 06:04:00,
2013-01-14 01:20:00,34.2,33.7,29.86,North,0,0.0,-999.0,98,-99.99,,,0.00,Acu-Link.com,2013-01-14 06:20:00,
2013-01-14 01:35:00,34.2,33.7,29.88,East,90,0.0,-999.0,98,-99.99,,,0.00,Acu-Link.com,2013-01-14 06:35:00,
2013-01-14 01:51:00,34.2,33.7,29.87,NNE,22,0.0,-999.0,98,-99.99,,,0.00,Acu-Link.com,2013-01-14 06:51:00,
2013-01-14 02:06:00,34.0,33.5,29.87,NNW,337,0.0,-999.0,98,-99.99,,,0.00,Acu-Link.com,2013-01-14 07:06:00,
2013-01-14 02:22:00,34.2,33.7,29.86,East,90,0.0,-999.0,98,-99.99,,,0.00,Acu-Link.com,2013-01-14 07:22:00,
2013-01-14 02:37:00,34.5,34.0,29.86,WNW,292,0.0,-999.0,98,-99.99,,,0.00,Acu-Link.com,2013-01-14 07:37:00,
2013-01-14 02:52:00,34.7,34.2,29.85,SW,225,0.0,-999.0,98,-99.99,,,0.00,Acu-Link.com,2013-01-14 07:52:00,
2013-01-14 03:08:00,34.9,34.4,29.84,NNW,337,0.0,-999.0,98,-99.99,,,0.00,Acu-Link.com,2013-01-14 08:08:00,
2013-01-14 03:24:00,34.5,34.0,29.83,ENE,67,0.0,-999.0,98,-99.99,,,0.00,Acu-Link.com,2013-01-14 08:24:00,
2013-01-14 03:39:00,34.5,34.0,29.84,ENE,67,0.0,-999.0,98,-99.99,,,0.00,Acu-Link.com,2013-01-14 08:39:00,
2013-01-14 03:55:00,34.3,33.8,29.83,NE,45,0.0,-999.0,98,-99.99,,,0.00,Acu-Link.com,2013-01-14 08:55:00,
2013-01-14 04:12:00,34.3,33.8,29.82,ENE,67,0.0,-999.0,98,-99.99,,,0.00,Acu-Link.com,2013-01-14 09:12:00,
2013-01-14 04:28:00,34.5,34.0,29.78,NE,45,0.0,-999.0,98,-99.99,,,0.00,Acu-Link.com,2013-01-14 09:28:00,
2013-01-14 04:44:00,34.7,34.2,29.77,NNW,337,0.0,-999.0,98,-99.99,,,0.00,Acu-Link.com,2013-01-14 09:44:00,
2013-01-14 05:02:00,34.9,34.4,29.78,NNW,337,0.0,-999.0,98,-99.99,,,0.00,Acu-Link.com,2013-01-14 10:02:00,
2013-01-14 05:32:00,35.4,34.9,29.78,West,270,0.0,-999.0,98,-99.99,,,0.00,Acu-Link.com,2013-01-14 10:32:00,
2013-01-14 05:48:00,35.4,34.9,29.79,East,90,0.0,-999.0,98,-99.99,,,0.00,Acu-Link.com,2013-01-14 10:48:00,
2013-01-14 06:10:00,35.4,34.9,29.80,South,180,0.0,-999.0,98,-99.99,,,0.00,Acu-Link.com,2013-01-14 11:10:00,
2013-01-14 06:26:00,35.6,35.1,29.79,WNW,292,0.0,-999.0,98,-99.99,,,0.00,Acu-Link.com,2013-01-14 11:26:00,
2013-01-14 06:43:00,35.6,35.1,29.78,WNW,292,0.0,-999.0,98,-99.99,,,0.00,Acu-Link.com,2013-01-14 11:43:00,
2013-01-14 11:32:00,52.5,45.5,29.82,WNW,292,6.3,-999.0,77,-99.99,,,0.00,Acu-Link.com,2013-01-14 16:32:00,
2013-01-14 12:07:00,52.5,45.5,29.85,ESE,112,2.7,-999.0,77,-99.99,,,0.00,Acu-Link.com,2013-01-14 17:07:00,
2013-01-14 12:37:00,52.3,44.3,29.88,NE,45,4.7,-999.0,74,-99.99,,,0.01,Acu-Link.com,2013-01-14 17:37:00,
2013-01-14 12:57:00,49.6,41.3,29.89,WNW,292,4.2,-999.0,73,-99.99,,,0.01,Acu-Link.com,2013-01-14 17:57:00,
2013-01-14 13:14:00,48.2,40.0,29.90,West,270,5.3,-999.0,73,-99.99,,,0.01,Acu-Link.com,2013-01-14 18:14:00,
2013-01-14 13:31:00,47.3,39.1,29.93,NE,45,4.2,-999.0,73,-99.99,,,0.01,Acu-Link.com,2013-01-14 18:31:00,
2013-01-14 13:47:00,46.9,38.7,29.93,SW,225,2.2,-999.0,73,-99.99,,,0.01,Acu-Link.com,2013-01-14 18:47:00,
2013-01-14 14:02:00,47.3,36.9,29.94,ESE,112,0.0,-999.0,67,-99.99,,,0.01,Acu-Link.com,2013-01-14 19:02:00,
2013-01-14 14:17:00,45.3,36.1,29.97,NNW,337,4.7,-999.0,70,-99.99,,,0.01,Acu-Link.com,2013-01-14 19:17:00,
2013-01-14 14:33:00,45.3,34.2,29.96,SW,225,2.7,-999.0,65,-99.99,,,0.01,Acu-Link.com,2013-01-14 19:33:00,
2013-01-14 14:48:00,45.3,33.5,29.98,ESE,112,5.8,-999.0,63,-99.99,,,0.01,Acu-Link.com,2013-01-14 19:48:00,
2013-01-14 15:03:00,44.4,32.6,30.00,West,270,2.2,-999.0,63,-99.99,,,0.01,Acu-Link.com,2013-01-14 20:03:00,
2013-01-14 15:18:00,43.9,31.7,30.00,ESE,112,0.0,-999.0,62,-99.99,,,0.01,Acu-Link.com,2013-01-14 20:18:00,
2013-01-14 15:33:00,43.2,31.9,30.01,South,180,4.7,-999.0,64,-99.99,,,0.01,Acu-Link.com,2013-01-14 20:33:00,
2013-01-14 15:49:00,41.7,32.3,30.03,SSW,202,1.7,-999.0,69,-99.99,,,0.01,Acu-Link.com,2013-01-14 20:49:00,
2013-01-14 16:04:00,41.5,30.2,30.03,NNE,22,2.2,-999.0,64,-99.99,,,0.01,Acu-Link.com,2013-01-14 21:04:00,
2013-01-14 16:19:00,41.2,29.6,30.04,SSW,202,1.1,-999.0,63,-99.99,,,0.01,Acu-Link.com,2013-01-14 21:19:00,
2013-01-14 16:34:00,40.8,29.2,30.05,NNW,337,1.1,-999.0,63,-99.99,,,0.01,Acu-Link.com,2013-01-14 21:34:00,
2013-01-14 16:50:00,40.3,28.7,30.04,WSW,247,2.2,-999.0,63,-99.99,,,0.01,Acu-Link.com,2013-01-14 21:50:00,
2013-01-14 17:05:00,40.3,28.7,30.06,WNW,292,3.2,-999.0,63,-99.99,,,0.01,Acu-Link.com,2013-01-14 22:05:00,
2013-01-14 17:21:00,39.7,28.9,30.06,WNW,292,1.7,-999.0,65,-99.99,,,0.01,Acu-Link.com,2013-01-14 22:21:00,
2013-01-14 17:36:00,38.7,28.3,30.06,NE,45,2.2,-999.0,66,-99.99,,,0.01,Acu-Link.com,2013-01-14 22:36:00,
2013-01-14 17:51:00,37.6,28.7,30.05,NNW,337,1.7,-999.0,70,-99.99,,,0.01,Acu-Link.com,2013-01-14 22:51:00,
2013-01-14 18:06:00,36.5,28.7,30.06,SW,225,1.1,-999.0,73,-99.99,,,0.01,Acu-Link.com,2013-01-14 23:06:00,
2013-01-14 18:22:00,36.9,27.3,30.05,ENE,67,2.2,-999.0,68,-99.99,,,0.01,Acu-Link.com,2013-01-14 23:22:00,
2013-01-14 18:37:00,36.9,27.3,30.07,WNW,292,1.1,-999.0,68,-99.99,,,0.01,Acu-Link.com,2013-01-14 23:37:00,
2013-01-14 18:52:00,36.7,27.5,30.08,West,270,1.1,-999.0,69,-99.99,,,0.01,Acu-Link.com,2013-01-14 23:52:00,
2013-01-14 19:07:00,36.5,27.3,30.09,NW,315,3.2,-999.0,69,-99.99,,,0.01,Acu-Link.com,2013-01-15 00:07:00,
2013-01-14 19:23:00,36.7,27.2,30.13,NW,315,3.2,-999.0,68,-99.99,,,0.01,Acu-Link.com,2013-01-15 00:23:00,
2013-01-14 19:38:00,36.5,27.3,30.12,WNW,292,3.7,-999.0,69,-99.99,,,0.01,Acu-Link.com,2013-01-15 00:38:00,
2013-01-14 19:54:00,36.3,27.5,30.12,WNW,292,3.2,-999.0,70,-99.99,,,0.01,Acu-Link.com,2013-01-15 00:54:00,
2013-01-14 20:09:00,36.1,27.3,30.13,WNW,292,1.7,-999.0,70,-99.99,,,0.01,Acu-Link.com,2013-01-15 01:09:00,
2013-01-14 20:24:00,36.5,27.3,30.15,WNW,292,2.7,-999.0,69,-99.99,,,0.01,Acu-Link.com,2013-01-15 01:24:00,
2013-01-14 20:39:00,36.1,27.3,30.14,West,270,2.7,-999.0,70,-99.99,,,0.01,Acu-Link.com,2013-01-15 01:39:00,
2013-01-14 20:55:00,36.1,28.3,30.14,NW,315,1.1,-999.0,73,-99.99,,,0.01,Acu-Link.com,2013-01-15 01:55:00,
2013-01-14 21:10:00,36.0,27.5,30.13,NNE,22,3.2,-999.0,71,-99.99,,,0.01,Acu-Link.com,2013-01-15 02:10:00,
2013-01-14 21:25:00,35.8,27.0,30.13,NW,315,2.7,-999.0,70,-99.99,,,0.01,Acu-Link.com,2013-01-15 02:25:00,
2013-01-14 21:40:00,35.6,25.4,30.13,NNW,337,1.7,-999.0,66,-99.99,,,0.01,Acu-Link.com,2013-01-15 02:40:00,
2013-01-14 21:56:00,35.2,25.4,30.12,NW,315,1.7,-999.0,67,-99.99,,,0.01,Acu-Link.com,2013-01-15 02:56:00,
2013-01-14 22:11:00,35.1,25.6,30.13,WNW,292,1.1,-999.0,68,-99.99,,,0.01,Acu-Link.com,2013-01-15 03:11:00,
2013-01-14 22:26:00,35.4,25.6,30.14,West,270,4.2,-999.0,67,-99.99,,,0.01,Acu-Link.com,2013-01-15 03:26:00,
2013-01-14 22:41:00,35.1,25.6,30.12,NW,315,2.2,-999.0,68,-99.99,,,0.01,Acu-Link.com,2013-01-15 03:41:00,
2013-01-14 22:56:00,34.9,25.1,30.12,NNE,22,3.2,-999.0,67,-99.99,,,0.01,Acu-Link.com,2013-01-15 03:56:00,
2013-01-14 23:12:00,34.5,25.4,30.12,North,0,0.0,-999.0,69,-99.99,,,0.01,Acu-Link.com,2013-01-15 04:12:00,
2013-01-14 23:27:00,34.0,25.6,30.14,SW,225,0.0,-999.0,71,-99.99,,,0.01,Acu-Link.com,2013-01-15 04:27:00,
2013-01-14 23:42:00,33.1,27.6,30.13,WNW,292,1.7,-999.0,80,-99.99,,,0.01,Acu-Link.com,2013-01-15 04:42:00,
2013-01-14 23:57:00,34.2,24.8,30.17,NW,315,2.2,-999.0,68,-99.99,,,0.01,Acu-Link.com,2013-01-15 04:57:00,